Firebaugh, California
Current Conditions -  °F | °C
As of 5:53 AM on Saturday 25 Oct 2014 (Local Time) from KMAE Reporting Station
Clear Clear  
Wind Chill: 59°   Ceiling: Unl
Heat Index: 59°   Visibility: 10mi
Dew Point: 49°   Wind: 7mph
Humidity: 69%   Direction: 20°NNE
Pressure: 29.98"   Gusts: NA
Location:  36.86°N, 120.46°W
Report Text: KMAE 251253Z AUTO 02006KT 10SM CLR 15/09 A2998 RMK AO2 SLP150 T01500094
Loading
Personal Weather Stations






























Interactive Weather Map
Tropical Storm Tracking
New forecast layout! Learn more

10-Day Weather Forecast

Advertisements
Track Severe Weather on mobile